sensor_id;sensor_type;location;lat;lon;timestamp;temperature;humidity
74742;SHT30;76291;48.288;16.314;2024-03-08T00:00:11;4.5;74.4
74742;SHT30;76291;48.288;16.314;2024-03-08T00:01:11;4.5;74.2
74742;SHT30;76291;48.288;16.314;2024-03-08T00:02:11;4.6;73.7
74742;SHT30;76291;48.288;16.314;2024-03-08T00:03:11;4.6;74.1
74742;SHT30;76291;48.288;16.314;2024-03-08T00:04:11;4.6;73.9
74742;SHT30;76291;48.288;16.314;2024-03-08T00:05:11;4.6;73.9
74742;SHT30;76291;48.288;16.314;2024-03-08T00:06:11;4.4;74.1
74742;SHT30;76291;48.288;16.314;2024-03-08T00:07:11;4.4;73.6
74742;SHT30;76291;48.288;16.314;2024-03-08T00:08:11;4.3;73.8
74742;SHT30;76291;48.288;16.314;2024-03-08T00:09:13;4.4;74.1
74742;SHT30;76291;48.288;16.314;2024-03-08T00:10:12;4.5;74.1
74742;SHT30;76291;48.288;16.314;2024-03-08T00:11:11;4.5;74.3
74742;SHT30;76291;48.288;16.314;2024-03-08T00:12:11;4.5;74.4
74742;SHT30;76291;48.288;16.314;2024-03-08T00:13:11;4.5;74.3
74742;SHT30;76291;48.288;16.314;2024-03-08T00:14:11;4.3;74.7
74742;SHT30;76291;48.288;16.314;2024-03-08T00:15:11;4.4;75.7
74742;SHT30;76291;48.288;16.314;2024-03-08T00:16:11;4.2;75.2
74742;SHT30;76291;48.288;16.314;2024-03-08T00:17:11;4.2;75.2
74742;SHT30;76291;48.288;16.314;2024-03-08T00:18:11;4.3;75.4
74742;SHT30;76291;48.288;16.314;2024-03-08T00:19:11;4.3;75.6
74742;SHT30;76291;48.288;16.314;2024-03-08T00:20:11;4.3;75.4
74742;SHT30;76291;48.288;16.314;2024-03-08T00:21:11;4.4;75.2
74742;SHT30;76291;48.288;16.314;2024-03-08T00:22:11;4.4;74.6
74742;SHT30;76291;48.288;16.314;2024-03-08T00:23:11;4.4;74.9
74742;SHT30;76291;48.288;16.314;2024-03-08T00:24:11;4.4;75.4
74742;SHT30;76291;48.288;16.314;2024-03-08T00:25:11;4.4;75.4
74742;SHT30;76291;48.288;16.314;2024-03-08T00:26:11;4.4;75.5
74742;SHT30;76291;48.288;16.314;2024-03-08T00:27:00;4.5;75.8
74742;SHT30;76291;48.288;16.314;2024-03-08T00:28:00;4.4;75.4
74742;SHT30;76291;48.288;16.314;2024-03-08T00:29:00;4.5;75.2
74742;SHT30;76291;48.288;16.314;2024-03-08T00:30:00;4.5;75.8
74742;SHT30;76291;48.288;16.314;2024-03-08T00:31:00;4.6;75.7
74742;SHT30;76291;48.288;16.314;2024-03-08T00:32:00;4.6;75.4
74742;SHT30;76291;48.288;16.314;2024-03-08T00:33:00;4.5;75.3
74742;SHT30;76291;48.288;16.314;2024-03-08T00:34:00;4.5;75.4
74742;SHT30;76291;48.288;16.314;2024-03-08T00:35:00;4.4;75.4
74742;SHT30;76291;48.288;16.314;2024-03-08T00:36:00;4.4;76.2
74742;SHT30;76291;48.288;16.314;2024-03-08T00:37:00;4.3;76.1
74742;SHT30;76291;48.288;16.314;2024-03-08T00:38:00;4.3;75.6
74742;SHT30;76291;48.288;16.314;2024-03-08T00:39:00;4.3;75.6
74742;SHT30;76291;48.288;16.314;2024-03-08T00:40:00;4.2;75.8
74742;SHT30;76291;48.288;16.314;2024-03-08T00:41:00;4.3;75.9
74742;SHT30;76291;48.288;16.314;2024-03-08T00:42:00;4.3;75.6
74742;SHT30;76291;48.288;16.314;2024-03-08T00:43:00;4.3;75.6
74742;SHT30;76291;48.288;16.314;2024-03-08T00:44:00;4.3;75.9
74742;SHT30;76291;48.288;16.314;2024-03-08T00:45:00;4.4;76.2
74742;SHT30;76291;48.288;16.314;2024-03-08T00:46:00;4.5;75.8
74742;SHT30;76291;48.288;16.314;2024-03-08T00:47:00;4.4;75.8
74742;SHT30;76291;48.288;16.314;2024-03-08T00:48:00;4.3;76.0
74742;SHT30;76291;48.288;16.314;2024-03-08T00:49:00;4.3;75.4
74742;SHT30;76291;48.288;16.314;2024-03-08T00:50:00;4.1;75.8
74742;SHT30;76291;48.288;16.314;2024-03-08T00:51:00;4.1;75.9
74742;SHT30;76291;48.288;16.314;2024-03-08T00:52:00;4.4;75.9
74742;SHT30;76291;48.288;16.314;2024-03-08T00:53:00;4.4;75.7
74742;SHT30;76291;48.288;16.314;2024-03-08T00:54:00;4.4;76.0
74742;SHT30;76291;48.288;16.314;2024-03-08T00:55:00;4.5;75.4
74742;SHT30;76291;48.288;16.314;2024-03-08T00:56:00;4.4;74.8
74742;SHT30;76291;48.288;16.314;2024-03-08T00:57:00;4.4;75.1
74742;SHT30;76291;48.288;16.314;2024-03-08T00:58:00;4.5;75.1
74742;SHT30;76291;48.288;16.314;2024-03-08T00:59:00;4.4;75.7
74742;SHT30;76291;48.288;16.314;2024-03-08T01:00:00;4.3;76.3
74742;SHT30;76291;48.288;16.314;2024-03-08T01:01:00;4.2;76.6
74742;SHT30;76291;48.288;16.314;2024-03-08T01:02:00;4.2;76.4
74742;SHT30;76291;48.288;16.314;2024-03-08T01:03:00;4.1;77.0
74742;SHT30;76291;48.288;16.314;2024-03-08T01:04:00;4.1;76.3
74742;SHT30;76291;48.288;16.314;2024-03-08T01:05:00;4.3;76.4
74742;SHT30;76291;48.288;16.314;2024-03-08T01:06:00;4.1;76.8
74742;SHT30;76291;48.288;16.314;2024-03-08T01:07:00;4.0;76.9
74742;SHT30;76291;48.288;16.314;2024-03-08T01:08:00;4.1;77.1
74742;SHT30;76291;48.288;16.314;2024-03-08T01:09:00;4.1;77.2
74742;SHT30;76291;48.288;16.314;2024-03-08T01:10:00;4.2;76.9
74742;SHT30;76291;48.288;16.314;2024-03-08T01:11:00;4.3;77.0
74742;SHT30;76291;48.288;16.314;2024-03-08T01:12:00;4.2;76.8
74742;SHT30;76291;48.288;16.314;2024-03-08T01:13:00;4.3;77.0
74742;SHT30;76291;48.288;16.314;2024-03-08T01:14:00;4.2;76.3
74742;SHT30;76291;48.288;16.314;2024-03-08T01:15:00;4.1;76.8
74742;SHT30;76291;48.288;16.314;2024-03-08T01:16:00;4.2;77.2
74742;SHT30;76291;48.288;16.314;2024-03-08T01:17:00;4.1;77.3
74742;SHT30;76291;48.288;16.314;2024-03-08T01:18:00;4.2;77.1
74742;SHT30;76291;48.288;16.314;2024-03-08T01:19:00;4.1;77.0
74742;SHT30;76291;48.288;16.314;2024-03-08T01:20:00;4.0;77.2
74742;SHT30;76291;48.288;16.314;2024-03-08T01:21:00;4.1;76.8
74742;SHT30;76291;48.288;16.314;2024-03-08T01:22:00;4.1;76.9
74742;SHT30;76291;48.288;16.314;2024-03-08T01:23:00;4.2;76.8
74742;SHT30;76291;48.288;16.314;2024-03-08T01:24:00;4.2;76.7
74742;SHT30;76291;48.288;16.314;2024-03-08T01:25:00;4.2;77.1
74742;SHT30;76291;48.288;16.314;2024-03-08T01:26:00;4.2;77.7
74742;SHT30;76291;48.288;16.314;2024-03-08T01:27:00;4.1;77.4
74742;SHT30;76291;48.288;16.314;2024-03-08T01:28:00;4.3;77.3
74742;SHT30;76291;48.288;16.314;2024-03-08T01:29:00;4.3;77.7
74742;SHT30;76291;48.288;16.314;2024-03-08T01:30:00;4.1;77.4
74742;SHT30;76291;48.288;16.314;2024-03-08T01:31:00;4.1;77.2
74742;SHT30;76291;48.288;16.314;2024-03-08T01:32:00;4.0;77.5
74742;SHT30;76291;48.288;16.314;2024-03-08T01:33:00;4.1;77.3
74742;SHT30;76291;48.288;16.314;2024-03-08T01:34:00;4.0;77.6
74742;SHT30;76291;48.288;16.314;2024-03-08T01:35:00;4.0;77.4
74742;SHT30;76291;48.288;16.314;2024-03-08T01:36:00;4.0;77.7
74742;SHT30;76291;48.288;16.314;2024-03-08T01:37:00;4.1;77.8
74742;SHT30;76291;48.288;16.314;2024-03-08T01:38:00;4.0;78.3
74742;SHT30;76291;48.288;16.314;2024-03-08T01:39:03;4.1;78.3
74742;SHT30;76291;48.288;16.314;2024-03-08T01:40:00;4.2;78.0
74742;SHT30;76291;48.288;16.314;2024-03-08T01:41:00;4.1;77.6
74742;SHT30;76291;48.288;16.314;2024-03-08T01:42:00;4.1;77.6
74742;SHT30;76291;48.288;16.314;2024-03-08T01:43:15;4.0;77.8
74742;SHT30;76291;48.288;16.314;2024-03-08T01:44:00;4.1;77.3
74742;SHT30;76291;48.288;16.314;2024-03-08T01:45:00;4.0;77.4
74742;SHT30;76291;48.288;16.314;2024-03-08T01:46:00;4.0;77.7
74742;SHT30;76291;48.288;16.314;2024-03-08T01:47:02;4.1;77.9
74742;SHT30;76291;48.288;16.314;2024-03-08T01:48:00;4.2;77.6
74742;SHT30;76291;48.288;16.314;2024-03-08T01:49:00;4.1;77.0
74742;SHT30;76291;48.288;16.314;2024-03-08T01:50:00;4.1;77.6
74742;SHT30;76291;48.288;16.314;2024-03-08T01:51:00;4.1;77.5
74742;SHT30;76291;48.288;16.314;2024-03-08T01:52:00;4.0;77.9
74742;SHT30;76291;48.288;16.314;2024-03-08T01:53:00;4.0;78.3
74742;SHT30;76291;48.288;16.314;2024-03-08T01:54:00;4.0;78.2
74742;SHT30;76291;48.288;16.314;2024-03-08T01:55:00;4.0;78.6
74742;SHT30;76291;48.288;16.314;2024-03-08T01:56:00;4.1;77.9
74742;SHT30;76291;48.288;16.314;2024-03-08T01:57:00;4.2;77.2
74742;SHT30;76291;48.288;16.314;2024-03-08T01:58:03;4.3;77.0
74742;SHT30;76291;48.288;16.314;2024-03-08T01:59:00;4.3;76.6
74742;SHT30;76291;48.288;16.314;2024-03-08T02:00:01;4.3;76.8
74742;SHT30;76291;48.288;16.314;2024-03-08T02:01:00;4.2;76.7
74742;SHT30;76291;48.288;16.314;2024-03-08T02:02:00;4.2;77.2
74742;SHT30;76291;48.288;16.314;2024-03-08T02:03:00;4.1;77.5
74742;SHT30;76291;48.288;16.314;2024-03-08T02:04:00;4.2;77.8
74742;SHT30;76291;48.288;16.314;2024-03-08T02:05:00;4.2;78.0
74742;SHT30;76291;48.288;16.314;2024-03-08T02:06:00;4.1;78.0
74742;SHT30;76291;48.288;16.314;2024-03-08T02:07:00;4.2;77.7
74742;SHT30;76291;48.288;16.314;2024-03-08T02:08:00;4.1;78.4
74742;SHT30;76291;48.288;16.314;2024-03-08T02:09:00;4.3;77.9
74742;SHT30;76291;48.288;16.314;2024-03-08T02:10:00;4.1;77.9
74742;SHT30;76291;48.288;16.314;2024-03-08T02:11:00;4.1;77.5
74742;SHT30;76291;48.288;16.314;2024-03-08T02:12:00;4.0;77.7
74742;SHT30;76291;48.288;16.314;2024-03-08T02:13:01;3.9;78.0
74742;SHT30;76291;48.288;16.314;2024-03-08T02:14:00;4.1;78.2
74742;SHT30;76291;48.288;16.314;2024-03-08T02:15:00;4.1;78.0
74742;SHT30;76291;48.288;16.314;2024-03-08T02:16:00;4.0;78.2
74742;SHT30;76291;48.288;16.314;2024-03-08T02:17:00;4.0;78.2
74742;SHT30;76291;48.288;16.314;2024-03-08T02:18:00;4.0;78.4
74742;SHT30;76291;48.288;16.314;2024-03-08T02:19:00;4.0;78.3
74742;SHT30;76291;48.288;16.314;2024-03-08T02:20:00;4.1;77.7
74742;SHT30;76291;48.288;16.314;2024-03-08T02:21:00;4.1;77.9
74742;SHT30;76291;48.288;16.314;2024-03-08T02:22:00;4.1;77.7
74742;SHT30;76291;48.288;16.314;2024-03-08T02:23:00;4.2;77.7
74742;SHT30;76291;48.288;16.314;2024-03-08T02:24:00;4.0;77.8
74742;SHT30;76291;48.288;16.314;2024-03-08T02:25:03;3.9;78.5
74742;SHT30;76291;48.288;16.314;2024-03-08T02:26:00;3.8;78.3
74742;SHT30;76291;48.288;16.314;2024-03-08T02:27:00;3.9;78.4
74742;SHT30;76291;48.288;16.314;2024-03-08T02:28:00;3.9;78.2
74742;SHT30;76291;48.288;16.314;2024-03-08T02:29:00;3.8;78.3
74742;SHT30;76291;48.288;16.314;2024-03-08T02:30:00;4.0;78.5
74742;SHT30;76291;48.288;16.314;2024-03-08T02:31:00;4.0;77.9
74742;SHT30;76291;48.288;16.314;2024-03-08T02:32:00;4.0;78.3
74742;SHT30;76291;48.288;16.314;2024-03-08T02:33:00;4.1;78.3
74742;SHT30;76291;48.288;16.314;2024-03-08T02:34:00;4.0;78.5
74742;SHT30;76291;48.288;16.314;2024-03-08T02:35:00;4.0;78.6
74742;SHT30;76291;48.288;16.314;2024-03-08T02:36:00;4.1;78.1
74742;SHT30;76291;48.288;16.314;2024-03-08T02:37:00;4.1;78.4
74742;SHT30;76291;48.288;16.314;2024-03-08T02:38:00;4.2;78.4
74742;SHT30;76291;48.288;16.314;2024-03-08T02:39:02;4.2;77.9
74742;SHT30;76291;48.288;16.314;2024-03-08T02:40:00;4.2;77.5
74742;SHT30;76291;48.288;16.314;2024-03-08T02:41:00;4.2;77.7
74742;SHT30;76291;48.288;16.314;2024-03-08T02:42:00;4.1;77.9
74742;SHT30;76291;48.288;16.314;2024-03-08T02:43:00;4.1;78.2
74742;SHT30;76291;48.288;16.314;2024-03-08T02:44:00;4.2;78.4
74742;SHT30;76291;48.288;16.314;2024-03-08T02:45:00;4.2;77.4
74742;SHT30;76291;48.288;16.314;2024-03-08T02:46:00;4.2;77.4
74742;SHT30;76291;48.288;16.314;2024-03-08T02:47:00;4.2;77.2
74742;SHT30;76291;48.288;16.314;2024-03-08T02:48:00;4.1;77.3
74742;SHT30;76291;48.288;16.314;2024-03-08T02:49:00;4.0;77.3
74742;SHT30;76291;48.288;16.314;2024-03-08T02:50:00;3.9;77.9
74742;SHT30;76291;48.288;16.314;2024-03-08T02:51:00;3.9;78.0
74742;SHT30;76291;48.288;16.314;2024-03-08T02:52:00;3.8;78.1
74742;SHT30;76291;48.288;16.314;2024-03-08T02:53:01;3.9;77.9
74742;SHT30;76291;48.288;16.314;2024-03-08T02:54:00;3.8;78.4
74742;SHT30;76291;48.288;16.314;2024-03-08T02:55:00;3.8;78.7
74742;SHT30;76291;48.288;16.314;2024-03-08T02:56:00;3.9;79.3
74742;SHT30;76291;48.288;16.314;2024-03-08T02:57:00;3.9;80.0
74742;SHT30;76291;48.288;16.314;2024-03-08T02:58:00;3.9;79.8
74742;SHT30;76291;48.288;16.314;2024-03-08T02:59:01;4.0;79.7
74742;SHT30;76291;48.288;16.314;2024-03-08T03:00:00;4.0;79.5
74742;SHT30;76291;48.288;16.314;2024-03-08T03:01:00;4.0;79.9
74742;SHT30;76291;48.288;16.314;2024-03-08T03:02:00;3.9;80.4
74742;SHT30;76291;48.288;16.314;2024-03-08T03:03:00;4.1;80.3
74742;SHT30;76291;48.288;16.314;2024-03-08T03:04:00;4.0;79.9
74742;SHT30;76291;48.288;16.314;2024-03-08T03:05:00;4.1;80.2
74742;SHT30;76291;48.288;16.314;2024-03-08T03:06:00;4.1;79.9
74742;SHT30;76291;48.288;16.314;2024-03-08T03:07:00;4.1;79.5
74742;SHT30;76291;48.288;16.314;2024-03-08T03:08:00;4.1;79.6
74742;SHT30;76291;48.288;16.314;2024-03-08T03:09:00;4.1;79.2
74742;SHT30;76291;48.288;16.314;2024-03-08T03:10:00;4.0;79.3
74742;SHT30;76291;48.288;16.314;2024-03-08T03:11:00;4.0;79.7
74742;SHT30;76291;48.288;16.314;2024-03-08T03:12:00;4.0;79.9
74742;SHT30;76291;48.288;16.314;2024-03-08T03:14:00;4.1;79.7
74742;SHT30;76291;48.288;16.314;2024-03-08T03:15:00;4.1;79.7
74742;SHT30;76291;48.288;16.314;2024-03-08T03:16:00;4.1;79.6
74742;SHT30;76291;48.288;16.314;2024-03-08T03:17:00;4.1;79.3
74742;SHT30;76291;48.288;16.314;2024-03-08T03:18:00;4.1;79.7
74742;SHT30;76291;48.288;16.314;2024-03-08T03:19:00;4.2;79.4
74742;SHT30;76291;48.288;16.314;2024-03-08T03:20:00;4.2;79.4
74742;SHT30;76291;48.288;16.314;2024-03-08T03:21:00;4.2;79.7
74742;SHT30;76291;48.288;16.314;2024-03-08T03:22:01;4.2;79.5
74742;SHT30;76291;48.288;16.314;2024-03-08T03:23:00;4.3;79.6
74742;SHT30;76291;48.288;16.314;2024-03-08T03:24:00;4.2;79.6
74742;SHT30;76291;48.288;16.314;2024-03-08T03:25:00;4.2;79.6
74742;SHT30;76291;48.288;16.314;2024-03-08T03:26:00;4.2;79.6
74742;SHT30;76291;48.288;16.314;2024-03-08T03:27:00;4.3;79.6
74742;SHT30;76291;48.288;16.314;2024-03-08T03:28:00;4.2;79.3
74742;SHT30;76291;48.288;16.314;2024-03-08T03:29:00;4.2;79.6
74742;SHT30;76291;48.288;16.314;2024-03-08T03:30:00;4.2;79.4
74742;SHT30;76291;48.288;16.314;2024-03-08T03:31:00;4.2;79.1
74742;SHT30;76291;48.288;16.314;2024-03-08T03:32:00;4.1;79.3
74742;SHT30;76291;48.288;16.314;2024-03-08T03:33:00;4.2;79.1
74742;SHT30;76291;48.288;16.314;2024-03-08T03:34:00;4.1;78.8
74742;SHT30;76291;48.288;16.314;2024-03-08T03:35:00;4.2;78.6
74742;SHT30;76291;48.288;16.314;2024-03-08T03:36:00;4.2;78.7
74742;SHT30;76291;48.288;16.314;2024-03-08T03:37:00;4.1;79.2
74742;SHT30;76291;48.288;16.314;2024-03-08T03:38:00;3.9;79.4
74742;SHT30;76291;48.288;16.314;2024-03-08T03:39:00;3.9;79.8
74742;SHT30;76291;48.288;16.314;2024-03-08T03:40:00;3.9;79.6
74742;SHT30;76291;48.288;16.314;2024-03-08T03:41:00;4.0;79.4
74742;SHT30;76291;48.288;16.314;2024-03-08T03:43:00;4.1;79.7
74742;SHT30;76291;48.288;16.314;2024-03-08T03:44:00;4.2;79.4
74742;SHT30;76291;48.288;16.314;2024-03-08T03:45:00;4.2;79.4
74742;SHT30;76291;48.288;16.314;2024-03-08T03:46:00;4.2;79.3
74742;SHT30;76291;48.288;16.314;2024-03-08T03:47:00;4.1;79.5
74742;SHT30;76291;48.288;16.314;2024-03-08T03:48:03;4.2;79.3
74742;SHT30;76291;48.288;16.314;2024-03-08T03:49:00;4.2;79.4
74742;SHT30;76291;48.288;16.314;2024-03-08T03:50:00;4.2;79.2
74742;SHT30;76291;48.288;16.314;2024-03-08T03:51:00;4.1;79.5
74742;SHT30;76291;48.288;16.314;2024-03-08T03:52:00;4.1;79.4
74742;SHT30;76291;48.288;16.314;2024-03-08T03:53:00;4.1;79.5
74742;SHT30;76291;48.288;16.314;2024-03-08T03:54:00;3.9;79.9
74742;SHT30;76291;48.288;16.314;2024-03-08T03:55:00;3.9;79.7
74742;SHT30;76291;48.288;16.314;2024-03-08T03:56:00;4.0;79.6
74742;SHT30;76291;48.288;16.314;2024-03-08T03:57:00;4.0;79.7
74742;SHT30;76291;48.288;16.314;2024-03-08T03:58:00;4.1;79.5
74742;SHT30;76291;48.288;16.314;2024-03-08T03:59:00;4.0;79.5
74742;SHT30;76291;48.288;16.314;2024-03-08T04:00:00;4.1;79.3
74742;SHT30;76291;48.288;16.314;2024-03-08T04:01:00;4.1;79.0
74742;SHT30;76291;48.288;16.314;2024-03-08T04:02:00;4.2;78.7
74742;SHT30;76291;48.288;16.314;2024-03-08T04:03:00;4.2;78.5
74742;SHT30;76291;48.288;16.314;2024-03-08T04:04:00;4.1;78.5
74742;SHT30;76291;48.288;16.314;2024-03-08T04:05:00;4.1;79.2
74742;SHT30;76291;48.288;16.314;2024-03-08T04:06:00;4.0;79.6
74742;SHT30;76291;48.288;16.314;2024-03-08T04:07:00;3.8;79.6
74742;SHT30;76291;48.288;16.314;2024-03-08T04:08:00;3.8;79.3
74742;SHT30;76291;48.288;16.314;2024-03-08T04:09:00;3.8;78.9
74742;SHT30;76291;48.288;16.314;2024-03-08T04:10:02;3.8;79.4
74742;SHT30;76291;48.288;16.314;2024-03-08T04:11:00;3.9;79.2
74742;SHT30;76291;48.288;16.314;2024-03-08T04:12:00;3.9;79.5
74742;SHT30;76291;48.288;16.314;2024-03-08T04:13:00;3.9;79.4
74742;SHT30;76291;48.288;16.314;2024-03-08T04:14:00;3.8;79.6
74742;SHT30;76291;48.288;16.314;2024-03-08T04:15:00;3.9;79.5
74742;SHT30;76291;48.288;16.314;2024-03-08T04:16:00;3.8;79.9
74742;SHT30;76291;48.288;16.314;2024-03-08T04:17:00;3.8;79.9
74742;SHT30;76291;48.288;16.314;2024-03-08T04:18:00;3.8;80.1
74742;SHT30;76291;48.288;16.314;2024-03-08T04:19:00;3.9;80.3
74742;SHT30;76291;48.288;16.314;2024-03-08T04:20:00;4.0;79.7
74742;SHT30;76291;48.288;16.314;2024-03-08T04:21:00;3.9;79.7
74742;SHT30;76291;48.288;16.314;2024-03-08T04:22:00;3.9;80.2
74742;SHT30;76291;48.288;16.314;2024-03-08T04:23:00;3.9;80.1
74742;SHT30;76291;48.288;16.314;2024-03-08T04:24:00;3.9;79.5
74742;SHT30;76291;48.288;16.314;2024-03-08T04:25:00;3.9;80.2
74742;SHT30;76291;48.288;16.314;2024-03-08T04:26:00;3.7;80.3
74742;SHT30;76291;48.288;16.314;2024-03-08T04:27:00;3.8;80.5
74742;SHT30;76291;48.288;16.314;2024-03-08T04:28:00;3.8;80.1
74742;SHT30;76291;48.288;16.314;2024-03-08T04:29:00;3.8;79.9
74742;SHT30;76291;48.288;16.314;2024-03-08T04:30:00;3.9;80.2
74742;SHT30;76291;48.288;16.314;2024-03-08T04:31:00;3.8;79.8
74742;SHT30;76291;48.288;16.314;2024-03-08T04:32:01;3.8;80.0
74742;SHT30;76291;48.288;16.314;2024-03-08T04:33:00;3.7;80.4
74742;SHT30;76291;48.288;16.314;2024-03-08T04:34:00;3.6;80.4
74742;SHT30;76291;48.288;16.314;2024-03-08T04:35:00;3.7;80.5
74742;SHT30;76291;48.288;16.314;2024-03-08T04:36:00;3.7;80.4
74742;SHT30;76291;48.288;16.314;2024-03-08T04:37:00;3.9;80.2
74742;SHT30;76291;48.288;16.314;2024-03-08T04:38:00;3.9;80.0
74742;SHT30;76291;48.288;16.314;2024-03-08T04:39:00;3.8;80.5
74742;SHT30;76291;48.288;16.314;2024-03-08T04:40:00;3.8;80.2
74742;SHT30;76291;48.288;16.314;2024-03-08T04:41:00;3.8;80.4
74742;SHT30;76291;48.288;16.314;2024-03-08T04:42:02;3.8;80.6
74742;SHT30;76291;48.288;16.314;2024-03-08T04:43:00;3.8;81.1
74742;SHT30;76291;48.288;16.314;2024-03-08T04:44:00;3.9;80.5
74742;SHT30;76291;48.288;16.314;2024-03-08T04:45:00;3.7;80.9
74742;SHT30;76291;48.288;16.314;2024-03-08T04:46:00;3.7;81.2
74742;SHT30;76291;48.288;16.314;2024-03-08T04:47:00;3.7;81.1
74742;SHT30;76291;48.288;16.314;2024-03-08T04:48:01;3.9;80.9
74742;SHT30;76291;48.288;16.314;2024-03-08T04:49:00;3.9;80.6
74742;SHT30;76291;48.288;16.314;2024-03-08T04:50:00;3.9;80.5
74742;SHT30;76291;48.288;16.314;2024-03-08T04:51:00;4.0;80.3
74742;SHT30;76291;48.288;16.314;2024-03-08T04:52:01;4.0;80.2
74742;SHT30;76291;48.288;16.314;2024-03-08T04:53:00;4.0;80.4
74742;SHT30;76291;48.288;16.314;2024-03-08T04:54:00;4.0;80.0
74742;SHT30;76291;48.288;16.314;2024-03-08T04:55:00;4.1;80.0
74742;SHT30;76291;48.288;16.314;2024-03-08T04:56:00;3.9;80.5
74742;SHT30;76291;48.288;16.314;2024-03-08T04:57:00;3.8;81.0
74742;SHT30;76291;48.288;16.314;2024-03-08T04:58:00;3.8;81.1
74742;SHT30;76291;48.288;16.314;2024-03-08T04:59:01;3.7;81.2
74742;SHT30;76291;48.288;16.314;2024-03-08T05:00:00;3.8;80.8
74742;SHT30;76291;48.288;16.314;2024-03-08T05:01:00;3.8;81.2
74742;SHT30;76291;48.288;16.314;2024-03-08T05:02:00;3.7;80.7
74742;SHT30;76291;48.288;16.314;2024-03-08T05:03:00;3.8;80.4
74742;SHT30;76291;48.288;16.314;2024-03-08T05:04:00;3.7;80.6
74742;SHT30;76291;48.288;16.314;2024-03-08T05:05:00;3.7;80.7
74742;SHT30;76291;48.288;16.314;2024-03-08T05:06:00;3.7;80.5
74742;SHT30;76291;48.288;16.314;2024-03-08T05:07:00;3.7;80.5
74742;SHT30;76291;48.288;16.314;2024-03-08T05:08:00;3.7;80.3
74742;SHT30;76291;48.288;16.314;2024-03-08T05:09:00;3.7;80.4
74742;SHT30;76291;48.288;16.314;2024-03-08T05:10:00;3.7;80.1
74742;SHT30;76291;48.288;16.314;2024-03-08T05:11:00;3.8;80.3
74742;SHT30;76291;48.288;16.314;2024-03-08T05:12:00;3.8;80.0
74742;SHT30;76291;48.288;16.314;2024-03-08T05:13:00;3.7;80.3
74742;SHT30;76291;48.288;16.314;2024-03-08T05:14:00;3.7;80.8
74742;SHT30;76291;48.288;16.314;2024-03-08T05:15:00;3.7;80.7
74742;SHT30;76291;48.288;16.314;2024-03-08T05:16:00;3.8;80.5
74742;SHT30;76291;48.288;16.314;2024-03-08T05:17:00;3.7;80.5
74742;SHT30;76291;48.288;16.314;2024-03-08T05:18:00;3.7;80.5
74742;SHT30;76291;48.288;16.314;2024-03-08T05:19:00;3.7;80.5
74742;SHT30;76291;48.288;16.314;2024-03-08T05:20:00;3.7;80.8
74742;SHT30;76291;48.288;16.314;2024-03-08T05:21:00;3.7;80.7
74742;SHT30;76291;48.288;16.314;2024-03-08T05:22:00;3.7;80.7
74742;SHT30;76291;48.288;16.314;2024-03-08T05:23:00;3.7;81.1
74742;SHT30;76291;48.288;16.314;2024-03-08T05:24:00;3.7;81.6
74742;SHT30;76291;48.288;16.314;2024-03-08T05:25:00;3.6;81.2
74742;SHT30;76291;48.288;16.314;2024-03-08T05:26:00;3.5;81.0
74742;SHT30;76291;48.288;16.314;2024-03-08T05:27:00;3.6;81.1
74742;SHT30;76291;48.288;16.314;2024-03-08T05:28:00;3.7;80.6
74742;SHT30;76291;48.288;16.314;2024-03-08T05:29:00;3.6;80.6
74742;SHT30;76291;48.288;16.314;2024-03-08T05:30:01;3.7;80.8
74742;SHT30;76291;48.288;16.314;2024-03-08T05:31:00;3.6;81.5
74742;SHT30;76291;48.288;16.314;2024-03-08T05:32:00;3.6;81.2
74742;SHT30;76291;48.288;16.314;2024-03-08T05:33:00;3.7;80.7
74742;SHT30;76291;48.288;16.314;2024-03-08T05:34:00;3.6;80.6
74742;SHT30;76291;48.288;16.314;2024-03-08T05:35:00;3.6;80.5
74742;SHT30;76291;48.288;16.314;2024-03-08T05:36:00;3.7;80.5
74742;SHT30;76291;48.288;16.314;2024-03-08T05:37:00;3.7;80.8
74742;SHT30;76291;48.288;16.314;2024-03-08T05:38:00;3.7;80.4
74742;SHT30;76291;48.288;16.314;2024-03-08T05:39:00;3.7;80.7
74742;SHT30;76291;48.288;16.314;2024-03-08T05:40:00;3.6;80.2
74742;SHT30;76291;48.288;16.314;2024-03-08T05:41:00;3.6;80.4
74742;SHT30;76291;48.288;16.314;2024-03-08T05:42:00;3.6;80.5
74742;SHT30;76291;48.288;16.314;2024-03-08T05:43:00;3.6;80.8
74742;SHT30;76291;48.288;16.314;2024-03-08T05:44:00;3.7;80.8
74742;SHT30;76291;48.288;16.314;2024-03-08T05:45:00;3.7;80.6
74742;SHT30;76291;48.288;16.314;2024-03-08T05:46:00;3.7;80.6
74742;SHT30;76291;48.288;16.314;2024-03-08T05:47:00;3.7;80.6
74742;SHT30;76291;48.288;16.314;2024-03-08T05:48:00;3.7;80.9
74742;SHT30;76291;48.288;16.314;2024-03-08T05:49:00;3.7;80.9
74742;SHT30;76291;48.288;16.314;2024-03-08T05:50:00;3.8;80.8
74742;SHT30;76291;48.288;16.314;2024-03-08T05:51:00;3.8;80.8
74742;SHT30;76291;48.288;16.314;2024-03-08T05:52:00;3.9;80.7
74742;SHT30;76291;48.288;16.314;2024-03-08T05:53:00;3.9;80.6
74742;SHT30;76291;48.288;16.314;2024-03-08T05:54:01;3.8;80.1
74742;SHT30;76291;48.288;16.314;2024-03-08T05:55:00;3.9;80.2
74742;SHT30;76291;48.288;16.314;2024-03-08T05:56:00;3.8;80.2
74742;SHT30;76291;48.288;16.314;2024-03-08T05:59:00;3.8;80.4
74742;SHT30;76291;48.288;16.314;2024-03-08T06:00:00;3.8;80.4
74742;SHT30;76291;48.288;16.314;2024-03-08T06:01:00;3.8;80.7
74742;SHT30;76291;48.288;16.314;2024-03-08T06:02:00;3.8;80.7
74742;SHT30;76291;48.288;16.314;2024-03-08T06:03:00;3.8;80.8
74742;SHT30;76291;48.288;16.314;2024-03-08T06:04:00;3.8;80.8
74742;SHT30;76291;48.288;16.314;2024-03-08T06:05:00;3.8;80.4
74742;SHT30;76291;48.288;16.314;2024-03-08T06:06:00;3.9;80.5
74742;SHT30;76291;48.288;16.314;2024-03-08T06:07:00;3.8;80.6
74742;SHT30;76291;48.288;16.314;2024-03-08T06:08:00;3.8;80.4
74742;SHT30;76291;48.288;16.314;2024-03-08T06:09:00;3.9;80.4
74742;SHT30;76291;48.288;16.314;2024-03-08T06:13:00;3.9;80.2
74742;SHT30;76291;48.288;16.314;2024-03-08T06:14:00;3.9;80.5
74742;SHT30;76291;48.288;16.314;2024-03-08T06:15:00;3.9;80.3
74742;SHT30;76291;48.288;16.314;2024-03-08T06:16:00;3.9;80.4
74742;SHT30;76291;48.288;16.314;2024-03-08T06:17:00;3.9;80.2
74742;SHT30;76291;48.288;16.314;2024-03-08T06:18:00;4.0;79.5
74742;SHT30;76291;48.288;16.314;2024-03-08T06:19:00;4.0;79.4
74742;SHT30;76291;48.288;16.314;2024-03-08T06:20:00;3.9;79.8
74742;SHT30;76291;48.288;16.314;2024-03-08T06:21:00;3.9;80.0
74742;SHT30;76291;48.288;16.314;2024-03-08T06:22:00;3.9;79.8
74742;SHT30;76291;48.288;16.314;2024-03-08T06:23:00;3.9;80.0
74742;SHT30;76291;48.288;16.314;2024-03-08T06:24:00;3.9;79.7
74742;SHT30;76291;48.288;16.314;2024-03-08T06:25:00;3.8;80.0
74742;SHT30;76291;48.288;16.314;2024-03-08T06:26:00;3.8;79.6
74742;SHT30;76291;48.288;16.314;2024-03-08T06:27:00;3.8;79.9
74742;SHT30;76291;48.288;16.314;2024-03-08T06:28:00;3.7;80.4
74742;SHT30;76291;48.288;16.314;2024-03-08T06:29:00;3.8;80.4
74742;SHT30;76291;48.288;16.314;2024-03-08T06:30:00;3.8;80.8
74742;SHT30;76291;48.288;16.314;2024-03-08T06:31:00;3.7;81.2
74742;SHT30;76291;48.288;16.314;2024-03-08T06:32:00;3.7;80.7
74742;SHT30;76291;48.288;16.314;2024-03-08T06:33:00;3.8;80.6
74742;SHT30;76291;48.288;16.314;2024-03-08T06:34:03;3.7;80.9
74742;SHT30;76291;48.288;16.314;2024-03-08T06:35:00;3.7;80.8
74742;SHT30;76291;48.288;16.314;2024-03-08T06:36:00;3.7;80.4
74742;SHT30;76291;48.288;16.314;2024-03-08T06:37:00;3.8;80.3
74742;SHT30;76291;48.288;16.314;2024-03-08T06:38:00;3.7;80.2